Time;durP1;ratioP1;P1;durP2;ratioP2;P2;SDS_P1;SDS_P2;PMS_P1;PMS_P2;Temp;Humidity;BMP_temperature;BMP_pressure;BME280_temperature;BME280_humidity;BME280_pressure;Samples;Min_cycle;Max_cycle;Signal;HPM_P1;HPM_P2
2021/09/15 00:00:30;;;;;;;8.20;7.07;;;14.90;99.90;;;;;;5052695;28;20606;-82
2021/09/15 00:02:57;;;;;;;9.20;7.40;;;15.00;99.90;;;;;;5052581;28;20571;-82
2021/09/15 00:05:24;;;;;;;8.07;7.37;;;15.10;99.90;;;;;;5052500;28;21015;-82
2021/09/15 00:07:50;;;;;;;8.13;7.00;;;15.20;99.90;;;;;;5052379;28;20531;-82
2021/09/15 00:10:17;;;;;;;8.43;7.70;;;15.20;99.90;;;;;;5052577;28;20877;-82
2021/09/15 00:12:44;;;;;;;14.10;9.67;;;15.20;99.90;;;;;;5052719;28;21035;-84
2021/09/15 00:15:11;;;;;;;7.93;7.17;;;15.20;99.90;;;;;;5052362;28;20488;-84
2021/09/15 00:17:38;;;;;;;7.37;6.87;;;15.20;99.90;;;;;;5052682;28;20808;-84
2021/09/15 00:20:08;;;;;;;8.07;7.30;;;15.30;99.90;;;;;;5052336;28;20480;-85
2021/09/15 00:22:34;;;;;;;8.77;8.07;;;15.30;99.90;;;;;;5052597;28;20916;-84
2021/09/15 00:25:01;;;;;;;8.20;7.50;;;15.20;99.90;;;;;;5052512;28;20555;-84
2021/09/15 00:27:27;;;;;;;11.93;8.30;;;15.20;99.90;;;;;;5052287;28;20507;-84
2021/09/15 00:29:54;;;;;;;8.27;7.57;;;15.10;99.90;;;;;;5052349;28;20543;-84
2021/09/15 00:32:21;;;;;;;9.60;8.70;;;15.10;99.90;;;;;;5052341;28;20544;-84
2021/09/15 00:34:47;;;;;;;8.57;7.87;;;15.10;99.90;;;;;;5040421;28;20549;-84
2021/09/15 00:37:15;;;;;;;9.27;7.97;;;15.10;99.90;;;;;;5032647;28;20540;-84
2021/09/15 00:39:41;;;;;;;9.20;7.40;;;15.10;99.90;;;;;;5032429;28;20541;-85
2021/09/15 00:42:09;;;;;;;8.90;8.20;;;15.10;99.90;;;;;;5050135;28;20530;-84
2021/09/15 00:44:36;;;;;;;8.47;7.70;;;15.10;99.90;;;;;;5051904;28;20476;-83
2021/09/15 00:47:03;;;;;;;8.87;8.07;;;15.10;99.90;;;;;;5050949;28;20449;-83
2021/09/15 00:49:29;;;;;;;9.27;8.47;;;15.10;99.90;;;;;;5052160;28;21003;-82
2021/09/15 00:51:56;;;;;;;8.77;8.07;;;15.00;99.90;;;;;;5052338;28;20535;-82
2021/09/15 00:54:23;;;;;;;9.30;8.70;;;15.00;99.90;;;;;;5052355;28;20888;-82
2021/09/15 00:56:50;;;;;;;8.83;8.13;;;15.00;99.90;;;;;;5052130;28;20535;-82
2021/09/15 00:59:16;;;;;;;9.23;8.23;;;15.00;99.90;;;;;;5052157;28;20990;-82
2021/09/15 01:01:43;;;;;;;9.80;8.80;;;14.90;99.90;;;;;;5052035;28;20547;-82
2021/09/15 01:04:11;;;;;;;10.13;8.77;;;14.90;99.90;;;;;;5052086;28;20543;-82
2021/09/15 01:06:37;;;;;;;9.67;8.77;;;14.90;99.90;;;;;;5052469;28;20531;-82
2021/09/15 01:09:06;;;;;;;10.00;9.00;;;14.90;99.90;;;;;;5055848;28;20543;-82
2021/09/15 01:11:37;;;;;;;12.77;9.23;;;14.90;99.90;;;;;;5055687;28;20535;-82
2021/09/15 01:14:04;;;;;;;10.77;9.50;;;14.90;99.90;;;;;;5055716;28;20846;-82
2021/09/15 01:16:52;;;;;;;11.10;10.00;;;15.00;99.90;;;;;;5055424;28;20539;-85
2021/09/15 01:19:21;;;;;;;10.57;9.57;;;15.10;99.90;;;;;;5055699;28;20547;-84
2021/09/15 01:21:49;;;;;;;10.57;9.67;;;15.10;99.90;;;;;;5055493;28;20456;-84
2021/09/15 01:24:16;;;;;;;10.33;9.23;;;15.20;99.90;;;;;;5055503;28;20519;-84
2021/09/15 01:26:42;;;;;;;10.00;9.00;;;15.30;99.90;;;;;;5055347;28;20539;-84
2021/09/15 01:29:14;;;;;;;10.50;9.53;;;15.30;99.90;;;;;;5055623;28;20551;-85
2021/09/15 01:31:54;;;;;;;8.33;7.70;;;15.30;99.90;;;;;;5055305;28;20539;-84
2021/09/15 01:34:21;;;;;;;10.30;9.47;;;15.30;99.90;;;;;;5047418;28;21011;-84
2021/09/15 01:36:49;;;;;;;10.23;9.23;;;15.30;99.90;;;;;;5035252;28;20454;-84
2021/09/15 01:39:16;;;;;;;9.60;8.70;;;15.30;99.90;;;;;;5035549;28;20533;-83
2021/09/15 01:41:42;;;;;;;10.33;9.10;;;15.30;99.90;;;;;;5035533;28;20488;-82
2021/09/15 01:44:09;;;;;;;10.10;9.13;;;15.30;99.90;;;;;;5055032;28;20583;-82
2021/09/15 01:46:35;;;;;;;11.17;10.17;;;15.30;99.90;;;;;;5055235;28;20484;-82
2021/09/15 01:49:02;;;;;;;11.27;9.40;;;15.30;99.90;;;;;;5055149;28;20555;-82
2021/09/15 01:51:28;;;;;;;11.53;9.47;;;15.40;99.90;;;;;;5054877;28;20488;-82
2021/09/15 01:53:56;;;;;;;9.40;8.50;;;15.30;99.90;;;;;;5054893;28;20543;-84
2021/09/15 01:56:23;;;;;;;14.47;10.80;;;15.30;99.90;;;;;;5055099;28;20488;-84
2021/09/15 01:58:49;;;;;;;10.70;9.80;;;15.20;99.90;;;;;;5054896;28;20963;-83
2021/09/15 02:01:16;;;;;;;11.63;10.50;;;15.20;99.90;;;;;;5054746;28;21104;-82
2021/09/15 02:03:42;;;;;;;11.07;9.97;;;15.20;99.90;;;;;;5054704;28;20515;-83
2021/09/15 02:06:09;;;;;;;13.00;11.70;;;15.20;99.90;;;;;;5054646;28;20535;-83
2021/09/15 02:08:35;;;;;;;12.43;11.23;;;15.10;99.90;;;;;;5054641;28;20495;-83
2021/09/15 02:11:03;;;;;;;11.43;10.33;;;15.10;99.90;;;;;;5054653;28;20484;-82
2021/09/15 02:13:30;;;;;;;12.00;10.67;;;15.10;99.90;;;;;;5054499;28;20480;-83
2021/09/15 02:15:56;;;;;;;11.63;10.57;;;15.00;99.90;;;;;;5054586;28;20484;-83
2021/09/15 02:18:23;;;;;;;13.73;11.13;;;15.00;99.90;;;;;;5054066;28;20540;-84
2021/09/15 02:20:49;;;;;;;13.80;12.50;;;15.00;99.90;;;;;;5054361;28;20543;-84
2021/09/15 02:23:16;;;;;;;13.17;11.87;;;15.00;99.90;;;;;;5054098;28;20503;-84
2021/09/15 02:25:42;;;;;;;13.00;12.00;;;15.00;99.90;;;;;;5054520;28;20535;-84
2021/09/15 02:28:10;;;;;;;14.50;12.43;;;15.10;99.90;;;;;;5054296;28;20480;-84
2021/09/15 02:30:36;;;;;;;13.20;12.00;;;15.10;99.90;;;;;;5054413;28;20483;-84
2021/09/15 02:33:03;;;;;;;12.03;10.83;;;15.10;99.90;;;;;;5054045;28;20547;-84
2021/09/15 02:35:29;;;;;;;12.50;11.20;;;15.10;99.90;;;;;;5036523;28;20481;-83
2021/09/15 02:37:56;;;;;;;12.10;11.00;;;15.10;99.90;;;;;;5034038;28;20536;-84
2021/09/15 02:40:22;;;;;;;14.00;12.70;;;15.10;99.90;;;;;;5034296;28;20472;-82
2021/09/15 02:42:49;;;;;;;14.10;12.80;;;15.10;99.90;;;;;;5043667;28;20567;-82
2021/09/15 02:45:17;;;;;;;12.90;11.63;;;15.20;99.90;;;;;;5053715;28;21030;-82
2021/09/15 02:47:43;;;;;;;14.97;13.57;;;15.20;99.90;;;;;;5053883;28;20576;-83
2021/09/15 02:50:10;;;;;;;14.97;13.67;;;15.20;99.90;;;;;;5053842;28;20507;-82
2021/09/15 02:52:37;;;;;;;25.83;13.43;;;15.20;99.90;;;;;;5053896;28;20536;-82
2021/09/15 02:55:04;;;;;;;14.17;12.87;;;15.30;99.90;;;;;;5054180;28;20558;-82
2021/09/15 02:57:30;;;;;;;12.53;11.47;;;15.30;99.90;;;;;;5053698;28;20539;-82
2021/09/15 02:59:57;;;;;;;12.40;11.23;;;15.30;99.90;;;;;;5053731;28;20543;-82
2021/09/15 03:02:25;;;;;;;13.77;12.50;;;15.40;99.90;;;;;;5053557;28;20542;-82
2021/09/15 03:04:51;;;;;;;12.53;11.43;;;15.40;99.90;;;;;;5053486;28;20484;-83
2021/09/15 03:07:18;;;;;;;14.90;12.60;;;15.40;99.90;;;;;;5053666;28;20543;-82
2021/09/15 03:09:45;;;;;;;13.47;12.27;;;15.50;99.90;;;;;;5053690;28;20539;-82
2021/09/15 03:12:11;;;;;;;12.90;11.90;;;15.50;99.90;;;;;;5053494;28;20543;-83
2021/09/15 03:14:38;;;;;;;13.73;12.43;;;15.50;99.90;;;;;;5053521;28;20544;-83
2021/09/15 03:17:04;;;;;;;13.20;12.00;;;15.50;99.90;;;;;;5053273;28;20541;-82
2021/09/15 03:19:32;;;;;;;14.33;13.03;;;15.50;99.90;;;;;;5053241;28;20535;-82
2021/09/15 03:21:59;;;;;;;13.83;12.53;;;15.50;99.90;;;;;;5053407;28;20487;-83
2021/09/15 03:24:25;;;;;;;14.30;13.00;;;15.50;99.90;;;;;;5053104;28;20507;-83
2021/09/15 03:26:52;;;;;;;14.90;13.37;;;15.50;99.90;;;;;;5053207;28;20460;-83
2021/09/15 03:29:19;;;;;;;14.63;13.33;;;15.50;99.90;;;;;;5052418;28;21003;-83
2021/09/15 03:31:45;;;;;;;14.20;12.93;;;15.50;99.90;;;;;;5053024;28;20486;-84
2021/09/15 03:34:12;;;;;;;13.50;12.13;;;15.50;99.90;;;;;;5045972;28;20540;-83
2021/09/15 03:36:40;;;;;;;15.13;13.63;;;15.50;99.90;;;;;;5033294;28;20849;-84
2021/09/15 03:39:06;;;;;;;13.87;12.57;;;15.50;99.90;;;;;;5033184;28;20545;-84
2021/09/15 03:41:33;;;;;;;14.20;12.80;;;15.60;99.90;;;;;;5033119;28;20532;-84
2021/09/15 03:44:00;;;;;;;15.07;13.67;;;15.60;99.90;;;;;;5051944;28;20579;-84
2021/09/15 03:46:26;;;;;;;15.90;14.20;;;15.60;99.90;;;;;;5052821;28;20531;-83
2021/09/15 03:48:53;;;;;;;14.77;13.20;;;15.70;99.90;;;;;;5052931;28;20850;-84
2021/09/15 03:51:20;;;;;;;15.40;13.90;;;15.60;99.90;;;;;;5052984;28;20456;-83
2021/09/15 03:53:48;;;;;;;16.37;14.77;;;15.60;99.90;;;;;;5052782;28;20498;-83
2021/09/15 03:56:14;;;;;;;14.23;13.03;;;15.70;99.90;;;;;;5052882;28;20476;-83
2021/09/15 03:58:41;;;;;;;14.23;12.93;;;15.60;99.90;;;;;;5052679;28;20536;-83
2021/09/15 04:01:09;;;;;;;15.20;13.90;;;15.70;99.90;;;;;;5052676;28;20480;-83
2021/09/15 04:03:36;;;;;;;15.37;13.77;;;15.70;99.90;;;;;;5052760;28;20507;-84
2021/09/15 04:06:03;;;;;;;16.20;14.60;;;15.60;99.90;;;;;;5052903;28;20529;-84
2021/09/15 04:08:29;;;;;;;13.97;12.70;;;15.60;99.90;;;;;;5052716;28;20480;-83
2021/09/15 04:10:57;;;;;;;16.87;15.27;;;15.70;99.90;;;;;;5052718;28;20551;-83
2021/09/15 04:13:24;;;;;;;16.07;14.40;;;15.70;99.90;;;;;;5052508;28;20495;-83
2021/09/15 04:15:50;;;;;;;14.77;13.37;;;15.70;99.90;;;;;;5052529;28;20539;-83
2021/09/15 04:18:17;;;;;;;15.73;14.20;;;15.70;99.90;;;;;;5052609;28;20521;-83
2021/09/15 04:20:44;;;;;;;15.33;13.83;;;15.70;99.90;;;;;;5052738;28;20483;-83
2021/09/15 04:23:14;;;;;;;16.93;15.23;;;15.70;99.90;;;;;;5052438;28;20464;-83
2021/09/15 04:31:16;;;;;;;14.07;12.83;;;15.80;99.90;;;;;;5052521;28;20796;-83
2021/09/15 04:33:43;;;;;;;15.57;14.17;;;15.80;99.90;;;;;;5049538;28;20545;-83
2021/09/15 04:36:09;;;;;;;17.97;15.87;;;15.70;99.90;;;;;;5032502;28;20492;-83
2021/09/15 04:38:37;;;;;;;15.73;14.00;;;15.80;99.90;;;;;;5032382;28;20541;-83
2021/09/15 04:41:03;;;;;;;15.50;14.20;;;15.80;99.90;;;;;;5033629;28;20451;-85
2021/09/15 04:43:31;;;;;;;16.40;14.90;;;15.80;99.90;;;;;;5051821;28;20503;-82
2021/09/15 04:45:58;;;;;;;15.70;14.40;;;15.80;99.90;;;;;;5056249;28;20448;-84
2021/09/15 04:48:25;;;;;;;16.70;15.00;;;15.80;99.90;;;;;;5056105;28;20535;-83
2021/09/15 04:50:52;;;;;;;15.93;14.43;;;15.90;99.90;;;;;;5056102;28;20490;-82
2021/09/15 04:53:19;;;;;;;14.83;13.60;;;16.00;99.90;;;;;;5055867;28;20460;-82
2021/09/15 04:55:46;;;;;;;17.33;15.70;;;16.00;99.90;;;;;;5056191;28;20527;-82
2021/09/15 04:58:13;;;;;;;16.10;14.50;;;16.00;99.90;;;;;;5055994;28;20967;-82
2021/09/15 05:00:41;;;;;;;15.47;14.07;;;16.20;99.90;;;;;;5055980;28;21130;-82
2021/09/15 05:03:07;;;;;;;16.73;15.00;;;16.20;99.90;;;;;;5055572;28;20511;-82
2021/09/15 05:05:34;;;;;;;15.53;14.20;;;16.20;99.90;;;;;;5054157;28;21002;-82
2021/09/15 05:08:00;;;;;;;15.97;14.37;;;16.20;99.90;;;;;;5055860;28;20523;-82
2021/09/15 05:10:27;;;;;;;18.10;13.70;;;16.20;99.90;;;;;;5055236;28;21018;-82
2021/09/15 05:12:54;;;;;;;15.30;13.80;;;16.20;99.90;;;;;;5046068;28;20527;-82
2021/09/15 05:15:21;;;;;;;15.27;13.70;;;16.30;99.90;;;;;;5055481;28;21034;-81
2021/09/15 05:17:50;;;;;;;15.20;13.70;;;16.30;99.90;;;;;;5055588;28;20452;-82
2021/09/15 05:20:18;;;;;;;15.80;14.30;;;16.30;99.90;;;;;;5054586;28;20535;-82
2021/09/15 05:22:46;;;;;;;17.93;15.90;;;16.30;99.90;;;;;;5054659;28;20472;-82
2021/09/15 05:25:13;;;;;;;15.80;14.20;;;16.30;99.90;;;;;;5051792;28;21041;-81
2021/09/15 05:27:39;;;;;;;14.90;13.53;;;16.40;99.90;;;;;;5055032;28;20495;-80
2021/09/15 05:30:07;;;;;;;19.97;14.43;;;16.40;99.90;;;;;;5054820;28;20527;-80
2021/09/15 05:32:34;;;;;;;15.87;14.47;;;16.40;99.90;;;;;;5055033;28;20448;-83
2021/09/15 05:35:02;;;;;;;16.00;13.80;;;16.50;99.90;;;;;;5041465;28;20454;-83
2021/09/15 05:37:29;;;;;;;16.67;15.13;;;16.50;99.90;;;;;;5037258;28;20503;-83
2021/09/15 05:39:56;;;;;;;14.20;12.90;;;16.60;99.90;;;;;;5055242;28;20531;-81
2021/09/15 05:42:23;;;;;;;16.13;14.47;;;16.60;99.90;;;;;;5055224;28;20540;-82
2021/09/15 05:44:50;;;;;;;15.90;14.30;;;16.60;99.90;;;;;;5054457;28;20587;-82
2021/09/15 05:47:16;;;;;;;17.00;15.33;;;16.70;99.90;;;;;;5054999;28;20484;-84
2021/09/15 05:49:43;;;;;;;17.30;15.60;;;16.80;99.90;;;;;;5055055;28;20444;-84
2021/09/15 05:52:11;;;;;;;16.40;14.90;;;17.00;99.90;;;;;;5054799;28;20491;-84
2021/09/15 05:54:37;;;;;;;14.77;13.30;;;17.00;99.90;;;;;;5054606;28;20539;-84
2021/09/15 05:57:04;;;;;;;15.20;13.70;;;17.10;99.90;;;;;;5054864;28;20480;-84
2021/09/15 05:59:30;;;;;;;14.20;13.00;;;17.20;99.90;;;;;;5054728;28;20543;-84
2021/09/15 06:01:57;;;;;;;13.73;12.63;;;17.20;99.90;;;;;;5054673;28;20510;-84
2021/09/15 06:04:23;;;;;;;14.93;13.60;;;17.40;99.90;;;;;;5054749;28;20609;-84
2021/09/15 06:06:50;;;;;;;14.20;12.97;;;17.50;99.90;;;;;;5054774;28;20484;-84
2021/09/15 06:09:18;;;;;;;14.03;12.83;;;17.60;99.90;;;;;;5054636;28;21023;-84
2021/09/15 06:11:44;;;;;;;14.20;12.80;;;17.70;99.90;;;;;;5054672;28;20535;-84
2021/09/15 06:14:11;;;;;;;14.73;13.23;;;17.70;99.90;;;;;;5054553;28;20480;-84
2021/09/15 06:16:37;;;;;;;14.10;12.93;;;17.80;99.90;;;;;;5054416;28;20483;-84
2021/09/15 06:19:04;;;;;;;14.50;11.77;;;17.80;99.90;;;;;;5054323;28;20448;-84
2021/09/15 06:21:31;;;;;;;13.00;11.90;;;17.80;99.90;;;;;;5054468;28;20475;-84
2021/09/15 06:23:57;;;;;;;14.20;12.30;;;17.90;99.90;;;;;;5054343;28;20464;-84
2021/09/15 06:26:26;;;;;;;13.80;12.60;;;17.90;99.90;;;;;;5054380;28;20510;-84
2021/09/15 06:28:52;;;;;;;14.27;13.03;;;17.90;99.90;;;;;;5054155;28;20981;-85
2021/09/15 06:31:19;;;;;;;14.00;12.53;;;17.90;99.90;;;;;;5054164;28;20551;-85
2021/09/15 06:33:46;;;;;;;13.70;12.43;;;18.00;99.90;;;;;;5051019;28;20495;-82
2021/09/15 06:36:13;;;;;;;13.70;12.30;;;18.10;99.90;;;;;;5034246;28;20489;-82
2021/09/15 06:38:42;;;;;;;12.93;11.63;;;18.20;99.90;;;;;;5034233;28;20456;-82
2021/09/15 06:41:08;;;;;;;12.00;10.90;;;18.40;99.90;;;;;;5033992;28;20565;-82
2021/09/15 06:43:37;;;;;;;12.97;11.87;;;18.60;99.90;;;;;;5049716;28;20940;-82
2021/09/15 06:46:03;;;;;;;12.40;11.27;;;18.80;99.90;;;;;;5054084;28;20487;-83
2021/09/15 06:48:30;;;;;;;11.83;10.80;;;18.90;99.90;;;;;;5053985;28;20590;-83
2021/09/15 06:50:56;;;;;;;11.70;10.80;;;19.10;99.90;;;;;;5053821;28;20449;-82
2021/09/15 06:53:23;;;;;;;12.17;10.97;;;19.30;99.90;;;;;;5053863;28;20544;-83
2021/09/15 06:55:49;;;;;;;11.70;10.70;;;19.50;99.90;;;;;;5053674;28;20540;-84
2021/09/15 06:58:16;;;;;;;12.30;11.30;;;19.70;99.90;;;;;;5053704;28;20476;-84
2021/09/15 07:00:44;;;;;;;13.13;10.77;;;19.90;99.90;;;;;;5053670;28;20535;-84
2021/09/15 07:03:10;;;;;;;12.13;10.93;;;20.10;99.90;;;;;;5053525;28;21010;-84
2021/09/15 07:05:37;;;;;;;12.03;10.93;;;20.20;99.90;;;;;;5052387;28;20566;-83
2021/09/15 07:08:04;;;;;;;14.17;10.73;;;20.10;99.90;;;;;;5053538;28;20449;-83
2021/09/15 07:10:33;;;;;;;10.73;9.93;;;20.10;99.90;;;;;;5053375;28;21032;-83
2021/09/15 07:12:59;;;;;;;11.63;10.63;;;20.10;99.90;;;;;;5053413;28;20459;-83
2021/09/15 07:15:26;;;;;;;11.50;10.17;;;20.00;99.90;;;;;;5053457;28;20543;-83
2021/09/15 07:17:54;;;;;;;10.67;9.67;;;19.90;99.90;;;;;;5053530;28;20476;-83
2021/09/15 07:20:21;;;;;;;11.67;10.60;;;19.90;99.90;;;;;;5052904;28;20463;-83
2021/09/15 07:22:48;;;;;;;12.23;11.03;;;19.80;99.90;;;;;;5053331;28;20472;-83
2021/09/15 07:25:15;;;;;;;13.73;10.20;;;19.80;99.90;;;;;;5052950;28;20512;-82
2021/09/15 07:27:42;;;;;;;11.10;10.10;;;19.70;99.90;;;;;;5053422;28;20514;-83
2021/09/15 07:30:09;;;;;;;12.37;10.47;;;19.80;99.90;;;;;;5053270;28;20448;-82
2021/09/15 07:32:36;;;;;;;11.27;10.37;;;19.80;99.90;;;;;;5053223;28;20484;-82
2021/09/15 07:35:05;;;;;;;11.63;10.60;;;20.00;99.90;;;;;;5035769;28;20493;-83
2021/09/15 07:37:32;;;;;;;11.20;10.30;;;20.20;99.90;;;;;;5033160;28;21059;-83
2021/09/15 07:39:58;;;;;;;11.60;10.70;;;20.30;99.90;;;;;;5033045;28;20855;-81
2021/09/15 07:42:25;;;;;;;10.43;9.43;;;20.40;99.90;;;;;;5039406;28;20523;-81
2021/09/15 07:44:52;;;;;;;11.20;10.20;;;20.40;99.90;;;;;;5052425;28;20571;-81
2021/09/15 07:47:18;;;;;;;12.07;10.77;;;20.40;99.90;;;;;;5050131;28;20521;-81
2021/09/15 07:49:46;;;;;;;11.80;10.60;;;20.50;99.90;;;;;;5052542;28;20480;-81
2021/09/15 07:52:14;;;;;;;10.87;10.00;;;20.60;99.90;;;;;;5052645;28;20527;-81
2021/09/15 07:54:41;;;;;;;10.87;9.77;;;20.60;99.90;;;;;;5052572;28;21077;-81
2021/09/15 07:57:07;;;;;;;10.87;9.80;;;20.70;99.90;;;;;;5052711;28;20882;-81
2021/09/15 07:59:34;;;;;;;9.80;9.10;;;20.80;99.90;;;;;;5052677;28;20472;-81
2021/09/15 08:02:01;;;;;;;10.47;9.47;;;20.80;99.90;;;;;;5052514;28;20479;-81
2021/09/15 08:04:27;;;;;;;10.27;9.47;;;21.00;99.90;;;;;;5052341;28;20464;-79
2021/09/15 08:06:54;;;;;;;9.97;8.97;;;21.10;99.90;;;;;;5052297;28;20926;-79
2021/09/15 08:09:22;;;;;;;11.07;10.17;;;21.30;99.90;;;;;;5052447;28;20919;-80
2021/09/15 08:11:48;;;;;;;10.00;9.00;;;21.50;99.90;;;;;;5052356;28;20543;-79
2021/09/15 08:14:15;;;;;;;9.60;8.80;;;21.60;99.90;;;;;;5052563;28;20774;-79
2021/09/15 08:16:41;;;;;;;10.13;9.23;;;21.70;99.90;;;;;;5054141;28;20535;-79
2021/09/15 08:19:08;;;;;;;9.57;8.67;;;21.70;99.90;;;;;;5056374;28;20483;-79
2021/09/15 08:21:34;;;;;;;8.93;8.23;;;21.60;99.90;;;;;;5056247;28;20498;-80
2021/09/15 08:24:01;;;;;;;9.93;8.80;;;21.50;99.90;;;;;;5056312;28;20444;-79
2021/09/15 08:26:29;;;;;;;8.70;8.07;;;21.50;99.90;;;;;;5056077;28;20476;-79
2021/09/15 08:28:55;;;;;;;9.50;8.77;;;21.50;99.90;;;;;;5056080;28;20528;-79
2021/09/15 08:31:22;;;;;;;9.80;8.90;;;21.40;99.90;;;;;;5056205;28;20760;-79
2021/09/15 08:33:48;;;;;;;9.00;8.20;;;21.40;99.90;;;;;;5049608;28;20457;-80
2021/09/15 08:36:17;;;;;;;8.93;8.13;;;21.40;99.90;;;;;;5044710;28;20540;-80
2021/09/15 08:38:43;;;;;;;8.57;7.97;;;21.40;99.90;;;;;;5049793;28;20528;-80
2021/09/15 08:41:10;;;;;;;8.80;7.97;;;21.40;99.90;;;;;;5055331;28;20929;-80
2021/09/15 08:43:38;;;;;;;9.10;8.40;;;21.40;99.90;;;;;;5055952;28;20531;-80
2021/09/15 08:46:05;;;;;;;8.20;7.60;;;21.40;99.90;;;;;;5055080;28;20542;-80
2021/09/15 08:48:37;;;;;;;7.70;7.17;;;21.40;99.90;;;;;;5055673;28;20451;-80
2021/09/15 08:51:04;;;;;;;9.03;8.43;;;21.40;99.90;;;;;;5055160;28;20449;-81
2021/09/15 08:53:31;;;;;;;8.40;7.80;;;21.50;99.90;;;;;;5055384;28;20527;-80
2021/09/15 08:55:57;;;;;;;8.67;7.97;;;21.50;99.90;;;;;;5055486;28;20535;-82
2021/09/15 08:58:23;;;;;;;9.00;8.30;;;21.50;99.90;;;;;;5055470;28;20531;-80
2021/09/15 09:00:51;;;;;;;8.50;7.90;;;21.60;99.90;;;;;;5055311;28;21019;-80
2021/09/15 09:03:18;;;;;;;8.63;7.93;;;21.60;99.90;;;;;;5055244;28;20498;-80
2021/09/15 09:05:44;;;;;;;8.13;7.53;;;21.70;99.90;;;;;;5054895;28;21181;-80
2021/09/15 09:08:23;;;;;;;8.17;7.40;;;21.90;99.90;;;;;;5055265;28;20535;-80
2021/09/15 09:10:52;;;;;;;8.40;7.60;;;22.00;99.90;;;;;;5055225;28;20444;-80
2021/09/15 09:13:19;;;;;;;7.40;6.90;;;22.10;99.90;;;;;;5055191;28;20444;-80
2021/09/15 09:15:46;;;;;;;7.60;7.10;;;22.20;99.90;;;;;;5055452;28;20484;-80
2021/09/15 09:18:14;;;;;;;8.73;7.97;;;22.40;99.90;;;;;;5055310;28;20796;-80
2021/09/15 09:20:41;;;;;;;8.43;7.57;;;22.50;99.90;;;;;;5055090;28;20479;-80
2021/09/15 09:23:11;;;;;;;8.73;8.13;;;22.60;99.90;;;;;;5055457;28;20448;-80
2021/09/15 09:25:41;;;;;;;9.60;8.13;;;22.70;99.90;;;;;;5055241;28;20480;-80
2021/09/15 09:28:28;;;;;;;7.50;6.90;;;23.00;99.90;;;;;;5053824;28;20502;-80
2021/09/15 09:30:56;;;;;;;7.50;6.90;;;23.20;99.90;;;;;;5055204;28;20444;-80
2021/09/15 09:33:25;;;;;;;8.40;7.73;;;23.50;99.90;;;;;;5051735;28;20477;-80
2021/09/15 09:35:54;;;;;;;8.60;7.80;;;23.80;99.90;;;;;;5039797;28;20448;-80
2021/09/15 09:38:27;;;;;;;7.60;7.10;;;23.90;99.90;;;;;;5039503;28;20445;-80
2021/09/15 09:41:06;;;;;;;9.40;6.83;;;24.10;99.90;;;;;;5043007;28;20503;-80
2021/09/15 09:43:35;;;;;;;6.80;6.23;;;24.20;99.90;;;;;;5040389;28;20475;-80
2021/09/15 09:46:02;;;;;;;7.50;7.00;;;24.30;99.90;;;;;;5038335;28;20954;-80
2021/09/15 09:48:36;;;;;;;7.30;6.80;;;24.40;99.90;;;;;;5041799;28;20510;-80
2021/09/15 09:51:05;;;;;;;7.97;7.20;;;24.40;99.90;;;;;;5039525;28;20483;-80
2021/09/15 09:53:32;;;;;;;8.70;7.03;;;24.60;99.90;;;;;;5040143;28;20885;-80
2021/09/15 09:55:59;;;;;;;6.90;6.40;;;24.80;99.90;;;;;;5036459;28;20961;-80
2021/09/15 09:58:28;;;;;;;7.93;7.33;;;24.90;99.90;;;;;;5038502;28;20471;-80
2021/09/15 10:00:56;;;;;;;7.17;6.67;;;25.10;99.90;;;;;;5039269;28;20484;-81
2021/09/15 10:03:22;;;;;;;7.63;7.03;;;25.10;99.90;;;;;;5039569;28;20951;-80
2021/09/15 10:05:52;;;;;;;6.97;6.47;;;25.30;99.90;;;;;;5040795;28;20567;-80
2021/09/15 10:08:19;;;;;;;7.57;7.07;;;25.40;99.90;;;;;;5037587;28;20456;-80
2021/09/15 10:10:49;;;;;;;9.37;6.70;;;25.50;99.90;;;;;;5041866;28;20457;-80
2021/09/15 10:13:17;;;;;;;7.30;6.70;;;25.60;99.90;;;;;;5038388;28;21750;-80
2021/09/15 10:15:46;;;;;;;6.73;6.23;;;25.80;99.90;;;;;;5036977;28;20873;-81
2021/09/15 10:18:14;;;;;;;7.13;6.57;;;26.00;99.90;;;;;;5037855;28;21060;-80
2021/09/15 10:20:46;;;;;;;7.50;6.90;;;26.00;99.90;;;;;;5039217;28;20449;-81
2021/09/15 10:23:39;;;;;;;7.70;7.00;;;26.10;99.90;;;;;;5038105;28;20459;-80
2021/09/15 10:26:29;;;;;;;6.83;6.33;;;26.30;99.90;;;;;;5036401;28;20575;-80
2021/09/15 10:29:24;;;;;;;6.73;6.10;;;26.40;99.90;;;;;;5040139;28;20471;-81
2021/09/15 10:31:55;;;;;;;13.47;7.20;;;26.40;99.90;;;;;;5039472;28;20452;-81
2021/09/15 10:34:47;;;;;;;7.47;6.80;;;26.40;99.90;;;;;;5037690;28;20467;-81
2021/09/15 10:37:51;;;;;;;6.83;6.30;;;26.40;99.90;;;;;;5037426;28;20539;-80
2021/09/15 10:40:33;;;;;;;6.40;6.00;;;26.50;99.90;;;;;;5039092;28;20551;-81
2021/09/15 10:42:59;;;;;;;6.70;6.20;;;26.40;99.90;;;;;;5036165;28;20868;-81
2021/09/15 10:45:29;;;;;;;7.03;6.53;;;26.40;99.90;;;;;;5041572;28;21087;-81
2021/09/15 10:47:59;;;;;;;6.93;6.27;;;26.40;99.90;;;;;;5037737;28;20925;-81
2021/09/15 10:50:52;;;;;;;7.50;6.87;;;26.30;99.90;;;;;;5038902;28;20455;-81
2021/09/15 10:53:19;;;;;;;6.90;6.40;;;26.40;99.90;;;;;;5039201;28;20456;-81
2021/09/15 10:55:49;;;;;;;6.50;6.10;;;26.40;99.90;;;;;;5036479;28;20460;-81
2021/09/15 10:58:17;;;;;;;6.67;6.17;;;26.40;99.90;;;;;;5038194;28;20551;-80
2021/09/15 11:00:48;;;;;;;6.40;6.00;;;26.40;99.90;;;;;;5038197;28;20507;-81
2021/09/15 11:03:24;;;;;;;6.70;6.20;;;26.40;99.90;;;;;;5040539;28;20951;-80
2021/09/15 11:05:50;;;;;;;6.10;5.70;;;26.40;99.90;;;;;;5036144;28;20479;-80
2021/09/15 11:08:21;;;;;;;7.10;6.60;;;26.40;99.90;;;;;;5038427;28;20630;-80
2021/09/15 11:10:50;;;;;;;7.80;7.00;;;26.40;99.90;;;;;;5041618;28;20514;-80
2021/09/15 11:13:38;;;;;;;7.60;7.00;;;26.50;99.90;;;;;;5040172;28;20467;-80
2021/09/15 11:16:33;;;;;;;5.90;5.40;;;26.50;99.90;;;;;;5037869;28;20909;-80
2021/09/15 11:19:01;;;;;;;7.10;6.60;;;26.60;99.90;;;;;;5029177;28;20849;-80
2021/09/15 11:21:31;;;;;;;6.70;6.30;;;26.60;99.90;;;;;;5038258;28;20491;-81
2021/09/15 11:24:00;;;;;;;6.83;6.27;;;26.70;99.90;;;;;;5041484;28;20519;-81
2021/09/15 11:26:46;;;;;;;6.70;6.20;;;26.70;99.90;;;;;;5037428;28;20995;-81
2021/09/15 11:29:15;;;;;;;6.30;5.90;;;26.70;99.90;;;;;;5035581;28;20551;-81
2021/09/15 11:31:43;;;;;;;6.50;5.90;;;26.80;99.90;;;;;;5037021;28;20543;-81
2021/09/15 11:34:11;;;;;;;6.33;5.93;;;26.80;99.90;;;;;;5039956;28;20526;-81
2021/09/15 11:36:39;;;;;;;7.10;6.47;;;26.70;99.90;;;;;;5039179;28;20959;-81
2021/09/15 11:39:09;;;;;;;7.80;5.90;;;26.70;99.90;;;;;;5039134;28;20543;-82
2021/09/15 11:41:35;;;;;;;6.53;6.03;;;26.70;99.90;;;;;;5034662;28;20453;-81
2021/09/15 11:44:03;;;;;;;7.13;6.60;;;26.60;99.90;;;;;;5036847;28;20559;-81
2021/09/15 11:46:38;;;;;;;7.33;6.73;;;26.60;99.90;;;;;;5038257;28;20998;-81
2021/09/15 11:49:05;;;;;;;6.27;5.87;;;26.60;99.90;;;;;;5034842;28;20467;-81
2021/09/15 11:51:34;;;;;;;6.93;6.43;;;26.60;99.90;;;;;;5049571;28;20484;-81
2021/09/15 11:54:04;;;;;;;6.93;6.23;;;26.60;99.90;;;;;;5050266;28;20468;-81
2021/09/15 11:56:35;;;;;;;7.33;6.63;;;26.60;99.90;;;;;;5052176;28;21131;-81
2021/09/15 11:59:03;;;;;;;6.63;6.23;;;26.60;99.90;;;;;;5052295;28;20448;-82
2021/09/15 12:01:33;;;;;;;6.70;6.20;;;26.60;99.90;;;;;;5052321;28;20472;-82
2021/09/15 12:04:05;;;;;;;7.80;6.43;;;26.70;99.90;;;;;;5052316;28;20472;-81
2021/09/15 12:06:32;;;;;;;7.73;7.03;;;26.70;99.90;;;;;;5051807;28;20545;-81
2021/09/15 12:08:59;;;;;;;7.27;6.40;;;26.70;99.90;;;;;;5052203;28;20448;-81
2021/09/15 12:11:31;;;;;;;7.40;6.80;;;26.70;99.90;;;;;;5052366;28;21005;-81
2021/09/15 12:13:59;;;;;;;9.50;7.20;;;26.60;99.90;;;;;;5052044;28;20554;-81
2021/09/15 12:16:32;;;;;;;6.67;6.07;;;26.70;99.90;;;;;;5048758;28;20492;-84
2021/09/15 12:18:59;;;;;;;6.93;6.43;;;26.70;99.90;;;;;;5051481;28;21208;-84
2021/09/15 12:21:28;;;;;;;8.13;6.00;;;26.80;99.90;;;;;;5049336;28;20851;-84
2021/09/15 12:24:03;;;;;;;6.70;6.10;;;26.80;99.90;;;;;;5051971;28;20448;-84
2021/09/15 12:26:29;;;;;;;7.10;6.53;;;26.80;99.90;;;;;;5051823;28;20471;-84
2021/09/15 12:29:01;;;;;;;7.60;6.90;;;26.80;99.90;;;;;;5052025;28;20452;-84
2021/09/15 12:31:44;;;;;;;6.87;6.00;;;26.80;99.90;;;;;;5051818;28;20468;-84
2021/09/15 12:34:11;;;;;;;7.07;6.43;;;26.80;99.90;;;;;;5051760;28;20448;-84
2021/09/15 12:36:37;;;;;;;7.30;6.70;;;26.80;99.90;;;;;;5051969;28;20811;-83
2021/09/15 12:39:11;;;;;;;6.87;6.23;;;26.80;99.90;;;;;;5035487;28;20475;-84
2021/09/15 12:41:55;;;;;;;5.83;5.43;;;26.60;99.90;;;;;;5051974;28;20557;-83
2021/09/15 12:44:25;;;;;;;6.90;5.90;;;26.60;99.90;;;;;;5051676;28;20535;-83
2021/09/15 12:46:55;;;;;;;6.07;5.47;;;26.40;99.90;;;;;;5051747;28;20487;-84